createdAt,value
2018-12-12T00:01:45.562Z,93.79
2018-12-12T00:04:18.363Z,94.12
2018-12-12T00:06:44.198Z,93.98
2018-12-12T00:09:10.141Z,93.48
2018-12-12T00:11:35.958Z,93.79
2018-12-12T00:14:01.898Z,94.33
2018-12-12T00:16:27.612Z,94.29
2018-12-12T00:18:53.415Z,93.57
2018-12-12T00:21:19.215Z,94.20
2018-12-12T00:23:45.054Z,92.84
2018-12-12T00:26:10.784Z,93.23
2018-12-12T00:28:36.502Z,91.19
2018-12-12T00:31:02.369Z,91.63
2018-12-12T00:33:28.119Z,90.12
2018-12-12T00:35:53.843Z,91.04
2018-12-12T00:38:19.553Z,90.64
2018-12-12T00:40:45.274Z,90.52
2018-12-12T00:43:10.999Z,90.50
2018-12-12T00:45:36.750Z,89.79
2018-12-12T00:48:02.594Z,89.92
2018-12-12T00:50:35.183Z,89.42
2018-12-12T00:53:01.038Z,90.24
2018-12-12T00:55:26.902Z,90.97
2018-12-12T00:57:52.744Z,90.69
2018-12-12T01:00:18.475Z,90.05
2018-12-12T01:02:44.415Z,90.25
2018-12-12T01:05:10.150Z,90.96
2018-12-12T01:07:35.864Z,91.08
2018-12-12T01:10:01.799Z,91.14
2018-12-12T01:12:27.525Z,91.05
2018-12-12T01:14:53.286Z,90.81
2018-12-12T01:17:18.995Z,90.52
2018-12-12T01:19:44.742Z,90.17
2018-12-12T01:22:10.473Z,90.14
2018-12-12T01:24:36.205Z,90.17
2018-12-12T01:27:01.977Z,90.64
2018-12-12T01:29:33.629Z,90.12
2018-12-12T01:31:59.683Z,89.66
2018-12-12T01:34:25.514Z,89.82
2018-12-12T01:36:51.947Z,90.41
2018-12-12T01:39:17.682Z,89.73
2018-12-12T01:41:43.413Z,90.70
2018-12-12T01:44:09.242Z,89.76
2018-12-12T01:46:34.983Z,89.94
2018-12-12T01:49:00.718Z,90.96
2018-12-12T01:51:26.474Z,90.52
2018-12-12T01:53:52.190Z,90.70
2018-12-12T01:56:17.954Z,90.67
2018-12-12T01:58:43.699Z,91.17
2018-12-12T02:01:09.421Z,91.07
2018-12-12T02:03:35.149Z,91.39
2018-12-12T02:06:00.868Z,91.42
2018-12-12T02:08:26.729Z,90.66
2018-12-12T02:10:53.166Z,91.03
2018-12-12T02:13:27.099Z,91.39
2018-12-12T02:15:52.956Z,91.61
2018-12-12T02:18:18.706Z,91.66
2018-12-12T02:20:44.466Z,91.01
2018-12-12T02:23:10.213Z,91.26
2018-12-12T02:25:36.043Z,90.60
2018-12-12T02:28:01.781Z,90.67
2018-12-12T02:30:27.539Z,90.44
2018-12-12T02:32:53.275Z,90.41
2018-12-12T02:35:19.113Z,90.89
2018-12-12T02:37:44.973Z,90.83
2018-12-12T02:40:10.728Z,90.65
2018-12-12T02:42:36.498Z,90.52
2018-12-12T02:45:02.536Z,90.13
2018-12-12T02:47:28.260Z,90.61
2018-12-12T02:49:53.990Z,90.56
2018-12-12T02:52:19.844Z,90.14
2018-12-12T02:54:45.678Z,89.49
2018-12-12T02:57:11.402Z,90.01
2018-12-12T02:59:37.223Z,90.48
2018-12-12T03:02:03.067Z,89.84
2018-12-12T03:04:35.925Z,90.02
2018-12-12T03:07:01.656Z,89.50
2018-12-12T03:09:27.498Z,89.89
2018-12-12T03:11:53.218Z,90.29
2018-12-12T03:14:18.931Z,90.09
2018-12-12T03:16:44.774Z,90.23
2018-12-12T03:19:10.490Z,89.65
2018-12-12T03:21:36.246Z,89.58
2018-12-12T03:24:02.170Z,89.19
2018-12-12T03:26:28.021Z,88.23
2018-12-12T03:28:53.736Z,88.71
2018-12-12T03:31:19.595Z,87.86
2018-12-12T03:33:45.430Z,87.78
2018-12-12T03:36:11.156Z,87.08
2018-12-12T03:38:36.869Z,87.66
2018-12-12T03:41:02.678Z,87.49
2018-12-12T03:43:28.416Z,86.75
2018-12-12T03:45:54.156Z,87.53
2018-12-12T03:48:21.099Z,87.24
2018-12-12T03:50:46.926Z,87.14
2018-12-12T03:53:12.671Z,86.89
2018-12-12T03:55:38.418Z,86.28
2018-12-12T03:58:04.248Z,86.50
2018-12-12T04:00:30.085Z,86.54
2018-12-12T04:02:55.824Z,86.47
2018-12-12T04:05:21.569Z,86.96
2018-12-12T04:07:47.298Z,87.49
2018-12-12T04:10:13.101Z,86.41
2018-12-12T04:12:38.833Z,86.95
2018-12-12T04:15:04.649Z,87.14
2018-12-12T04:17:30.506Z,87.19
2018-12-12T04:19:56.331Z,86.80
2018-12-12T04:22:22.193Z,86.07
2018-12-12T04:24:48.409Z,86.99
2018-12-12T04:27:14.126Z,86.92
2018-12-12T04:29:39.852Z,86.83
2018-12-12T04:32:05.587Z,86.99
2018-12-12T04:34:31.302Z,86.38
2018-12-12T04:36:57.130Z,86.03
2018-12-12T04:39:22.849Z,85.87
2018-12-12T04:41:48.571Z,84.86
2018-12-12T04:44:14.394Z,84.40
2018-12-12T04:46:40.211Z,84.63
2018-12-12T04:49:06.042Z,84.34
2018-12-12T04:51:31.745Z,84.19
2018-12-12T04:53:57.458Z,84.67
2018-12-12T04:56:23.472Z,83.99
2018-12-12T04:58:49.183Z,83.70
2018-12-12T05:01:14.891Z,83.29
2018-12-12T05:03:40.607Z,82.99
2018-12-12T05:06:06.330Z,83.50
2018-12-12T05:08:32.051Z,83.60
2018-12-12T05:10:57.851Z,84.13
2018-12-12T05:13:23.562Z,83.86
2018-12-12T05:15:49.257Z,83.35
2018-12-12T05:18:14.978Z,83.23
2018-12-12T05:20:40.695Z,84.07
2018-12-12T05:23:06.408Z,84.29
2018-12-12T05:25:32.125Z,83.64
2018-12-12T05:27:57.947Z,83.50
2018-12-12T05:30:23.662Z,84.26
2018-12-12T05:32:49.475Z,83.73
2018-12-12T05:35:15.401Z,84.45
2018-12-12T05:37:41.121Z,83.59
2018-12-12T05:40:07.458Z,83.42
2018-12-12T05:42:33.396Z,83.19
2018-12-12T05:44:59.113Z,83.50
2018-12-12T05:47:24.929Z,83.57
2018-12-12T05:49:50.762Z,84.51
2018-12-12T05:52:16.565Z,83.60
2018-12-12T05:54:42.285Z,84.91
2018-12-12T05:57:08.020Z,83.92
2018-12-12T05:59:33.785Z,84.10
2018-12-12T06:01:59.631Z,83.25
2018-12-12T06:04:25.349Z,83.99
2018-12-12T06:06:51.178Z,83.84
2018-12-12T06:09:16.923Z,82.93
2018-12-12T06:11:42.740Z,83.51
2018-12-12T06:14:08.462Z,83.65
2018-12-12T06:16:34.181Z,83.41
2018-12-12T06:18:59.930Z,84.14
2018-12-12T06:21:25.639Z,83.85
2018-12-12T06:23:51.367Z,83.27
2018-12-12T06:26:17.084Z,84.02
2018-12-12T06:28:42.797Z,84.08
2018-12-12T06:31:08.498Z,84.37
2018-12-12T06:33:34.236Z,83.93
2018-12-12T06:36:00.058Z,83.60
2018-12-12T06:38:25.887Z,84.12
2018-12-12T06:40:51.871Z,84.36
2018-12-12T06:43:17.592Z,84.41
2018-12-12T06:45:43.423Z,84.11
2018-12-12T06:48:09.128Z,84.12
2018-12-12T06:50:34.839Z,85.03
2018-12-12T06:53:00.538Z,84.62
2018-12-12T06:55:26.254Z,84.46
2018-12-12T06:57:51.954Z,84.44
2018-12-12T07:00:17.674Z,84.25
2018-12-12T07:02:43.390Z,84.21
2018-12-12T07:05:09.219Z,85.35
2018-12-12T07:07:35.039Z,85.17
2018-12-12T07:10:00.755Z,84.42
2018-12-12T07:12:26.458Z,85.02
2018-12-12T07:14:52.178Z,84.75
2018-12-12T07:17:17.882Z,85.22
2018-12-12T07:19:43.605Z,84.83
2018-12-12T07:22:09.419Z,85.64
2018-12-12T07:24:35.125Z,85.56
2018-12-12T07:27:00.842Z,84.93
2018-12-12T07:29:26.566Z,85.41
2018-12-12T07:31:52.274Z,85.85
2018-12-12T07:34:18.210Z,85.99
2018-12-12T07:36:43.912Z,85.31
2018-12-12T07:39:09.646Z,85.80
2018-12-12T07:41:35.567Z,85.89
2018-12-12T07:44:01.791Z,86.36
2018-12-12T07:46:27.623Z,86.12
2018-12-12T07:48:53.425Z,86.10
2018-12-12T07:51:19.146Z,86.91
2018-12-12T07:53:44.862Z,87.11
2018-12-12T07:56:10.682Z,87.58
2018-12-12T07:58:36.403Z,86.98
2018-12-12T08:01:02.710Z,86.84
2018-12-12T08:03:28.845Z,87.00
2018-12-12T08:05:54.566Z,87.93
2018-12-12T08:08:20.274Z,88.38
2018-12-12T08:10:46.102Z,88.41
2018-12-12T08:13:11.909Z,87.55
2018-12-12T08:15:37.636Z,87.66
2018-12-12T08:18:03.834Z,87.49
2018-12-12T08:20:29.769Z,88.08
2018-12-12T08:22:56.391Z,87.95
2018-12-12T08:25:22.426Z,87.79
2018-12-12T08:27:48.133Z,87.99
2018-12-12T08:30:13.855Z,88.58
2018-12-12T08:32:39.668Z,87.77
2018-12-12T08:35:05.719Z,87.81
2018-12-12T08:37:31.442Z,88.58
2018-12-12T08:39:57.150Z,88.64
2018-12-12T08:42:22.886Z,88.90
2018-12-12T08:44:48.625Z,89.01
2018-12-12T08:47:14.451Z,88.12
2018-12-12T08:49:40.166Z,89.07
2018-12-12T08:52:06.293Z,88.91
2018-12-12T08:54:32.001Z,88.53
2018-12-12T08:56:57.870Z,88.98
2018-12-12T08:59:23.762Z,88.47
2018-12-12T09:01:49.583Z,88.16
2018-12-12T09:04:15.303Z,89.02
2018-12-12T09:06:41.141Z,88.31
2018-12-12T09:09:06.873Z,88.49
2018-12-12T09:11:32.807Z,87.96
2018-12-12T09:13:58.519Z,88.86
2018-12-12T09:16:24.245Z,87.88
2018-12-12T09:18:49.958Z,88.82
2018-12-12T09:21:15.679Z,88.31
2018-12-12T09:23:41.410Z,87.87
2018-12-12T09:26:07.139Z,88.77
2018-12-12T09:28:32.860Z,88.14
2018-12-12T09:30:58.601Z,88.05
2018-12-12T09:33:31.380Z,88.50
2018-12-12T09:35:57.110Z,88.22
2018-12-12T09:38:22.819Z,88.63
2018-12-12T09:40:48.655Z,88.46
2018-12-12T09:43:14.365Z,87.94
2018-12-12T09:45:40.091Z,87.71
2018-12-12T09:48:05.850Z,88.38
2018-12-12T09:50:31.726Z,88.17
2018-12-12T09:52:57.429Z,87.79
2018-12-12T09:55:23.238Z,88.00
2018-12-12T09:57:48.956Z,87.25
2018-12-12T10:00:14.771Z,88.04
2018-12-12T10:02:40.590Z,87.14
2018-12-12T10:05:06.418Z,87.42
2018-12-12T10:07:32.133Z,87.97
2018-12-12T10:09:57.947Z,87.75
2018-12-12T10:12:23.786Z,87.66
2018-12-12T10:14:49.594Z,86.70
2018-12-12T10:17:15.310Z,87.13
2018-12-12T10:19:41.018Z,87.68
2018-12-12T10:22:06.847Z,87.78
2018-12-12T10:24:32.874Z,87.26
2018-12-12T10:26:58.594Z,87.92
2018-12-12T10:29:24.402Z,87.48
2018-12-12T10:31:50.125Z,86.84
2018-12-12T10:34:15.945Z,87.49
2018-12-12T10:36:41.765Z,86.95
2018-12-12T10:39:07.803Z,87.12
2018-12-12T10:41:33.521Z,86.45
2018-12-12T10:43:59.268Z,86.25
2018-12-12T10:46:25.079Z,86.00
2018-12-12T10:48:51.072Z,86.67
2018-12-12T10:51:16.789Z,85.66
2018-12-12T10:53:42.519Z,86.00
2018-12-12T10:56:08.346Z,85.72
2018-12-12T10:58:34.181Z,86.24
2018-12-12T11:01:06.035Z,85.81
2018-12-12T11:03:32.266Z,85.37
2018-12-12T11:05:57.978Z,86.55
2018-12-12T11:08:23.702Z,86.42
2018-12-12T11:10:49.429Z,85.72
2018-12-12T11:13:15.170Z,86.67
2018-12-12T11:15:40.890Z,87.51
2018-12-12T11:18:06.618Z,85.65
2018-12-12T11:20:32.338Z,86.56
2018-12-12T11:22:58.059Z,86.15
2018-12-12T11:25:23.883Z,86.08
2018-12-12T11:27:49.703Z,86.05
2018-12-12T11:30:15.434Z,85.93
2018-12-12T11:32:41.148Z,85.30
2018-12-12T11:35:06.886Z,83.41
2018-12-12T11:37:32.615Z,83.53
2018-12-12T11:39:58.350Z,83.39
2018-12-12T11:42:24.078Z,83.41
2018-12-12T11:44:49.798Z,82.98
2018-12-12T11:47:15.628Z,83.10
2018-12-12T11:49:41.446Z,83.11
2018-12-12T11:52:07.277Z,83.04
2018-12-12T11:54:33.104Z,82.77
2018-12-12T11:56:59.327Z,83.34
2018-12-12T11:59:25.078Z,82.16
2018-12-12T12:01:50.802Z,82.92
2018-12-12T12:04:16.537Z,82.41
2018-12-12T12:06:42.254Z,82.55
2018-12-12T12:09:08.123Z,82.82
2018-12-12T12:11:33.849Z,82.45
2018-12-12T12:13:59.562Z,82.58
2018-12-12T12:16:32.406Z,82.17
2018-12-12T12:18:58.130Z,82.32
2018-12-12T12:21:23.855Z,82.21
2018-12-12T12:23:49.574Z,81.81
2018-12-12T12:26:15.696Z,82.05
2018-12-12T12:28:41.478Z,82.18
2018-12-12T12:31:07.328Z,81.83
2018-12-12T12:33:33.160Z,82.45
2018-12-12T12:35:58.894Z,82.77
2018-12-12T12:38:24.630Z,82.50
2018-12-12T12:40:50.359Z,83.27
2018-12-12T12:43:16.216Z,83.05
2018-12-12T12:45:41.963Z,82.52
2018-12-12T12:48:07.682Z,83.20
2018-12-12T12:50:33.430Z,83.33
2018-12-12T12:52:59.146Z,83.49
2018-12-12T12:55:24.887Z,83.09
2018-12-12T12:57:50.631Z,84.48
2018-12-12T13:00:16.554Z,84.04
2018-12-12T13:02:42.304Z,83.36
2018-12-12T13:05:08.124Z,84.53
2018-12-12T13:07:33.868Z,84.11
2018-12-12T13:09:59.607Z,84.46
2018-12-12T13:12:25.347Z,85.06
2018-12-12T13:14:51.113Z,84.81
2018-12-12T13:17:16.860Z,84.99
2018-12-12T13:19:42.589Z,84.44
2018-12-12T13:22:08.331Z,84.24
2018-12-12T13:24:34.063Z,84.14
2018-12-12T13:26:59.896Z,84.44
2018-12-12T13:29:25.723Z,84.27
2018-12-12T13:31:51.468Z,85.10
2018-12-12T13:34:17.291Z,83.88
2018-12-12T13:36:43.051Z,83.48
2018-12-12T13:39:08.882Z,84.53
2018-12-12T13:41:34.708Z,83.68
2018-12-12T13:44:00.447Z,83.35
2018-12-12T13:46:26.188Z,84.02
2018-12-12T13:48:52.028Z,82.86
2018-12-12T13:51:17.771Z,83.48
2018-12-12T13:53:43.637Z,82.64
2018-12-12T13:56:09.551Z,82.34
2018-12-12T13:58:35.407Z,82.64
2018-12-12T14:01:01.135Z,82.37
2018-12-12T14:03:26.972Z,82.77
2018-12-12T14:05:52.690Z,83.48
2018-12-12T14:08:18.415Z,83.25
2018-12-12T14:10:44.136Z,83.67
2018-12-12T14:13:09.875Z,84.70
2018-12-12T14:15:35.698Z,84.55
2018-12-12T14:18:01.423Z,84.68
2018-12-12T14:20:27.139Z,84.18
2018-12-12T14:22:52.847Z,83.88
2018-12-12T14:25:18.576Z,83.56
2018-12-12T14:27:44.302Z,83.57
2018-12-12T14:30:10.067Z,84.31
2018-12-12T14:32:35.915Z,84.27
2018-12-12T14:35:01.860Z,83.78
2018-12-12T14:37:27.674Z,83.95
2018-12-12T14:39:53.395Z,84.40
2018-12-12T14:42:19.119Z,84.45
2018-12-12T14:44:44.950Z,84.95
2018-12-12T14:47:10.676Z,85.06
2018-12-12T14:49:36.402Z,84.68
2018-12-12T14:52:02.234Z,84.04
2018-12-12T14:54:28.071Z,83.89
2018-12-12T14:56:54.491Z,84.57
2018-12-12T14:59:20.250Z,84.58
2018-12-12T15:01:46.064Z,83.39
2018-12-12T15:04:11.810Z,84.26
2018-12-12T15:06:37.530Z,83.07
2018-12-12T15:09:05.575Z,83.58
2018-12-12T15:11:31.314Z,84.04
2018-12-12T15:13:57.038Z,83.36
2018-12-12T15:16:22.863Z,84.07
2018-12-12T15:18:48.588Z,84.28
2018-12-12T15:21:14.432Z,84.21
2018-12-12T15:23:40.252Z,84.38
2018-12-12T15:26:06.095Z,84.55
2018-12-12T15:28:31.812Z,86.10
2018-12-12T15:30:57.646Z,85.20
2018-12-12T15:33:23.359Z,85.54
2018-12-12T15:35:49.095Z,86.23
2018-12-12T15:38:14.815Z,86.21
2018-12-12T15:40:40.551Z,85.93
2018-12-12T15:43:06.389Z,84.97
2018-12-12T15:45:32.125Z,84.89
2018-12-12T15:47:57.959Z,84.08
2018-12-12T15:50:24.878Z,84.94
2018-12-12T15:52:51.267Z,85.29
2018-12-12T15:55:18.074Z,85.14
2018-12-12T15:57:45.979Z,85.32
2018-12-12T16:00:16.678Z,85.51
2018-12-12T16:02:43.790Z,85.60
2018-12-12T16:05:11.020Z,84.87
2018-12-12T16:07:36.779Z,85.64
2018-12-12T16:10:04.703Z,84.78
2018-12-12T16:12:30.818Z,85.13
2018-12-12T16:14:56.688Z,85.59
2018-12-12T16:17:25.525Z,85.27
2018-12-12T16:19:58.401Z,85.79
2018-12-12T16:22:24.237Z,85.66
2018-12-12T16:24:50.078Z,85.15
2018-12-12T16:27:16.295Z,84.94
2018-12-12T16:29:43.200Z,85.61
2018-12-12T16:32:09.056Z,84.96
2018-12-12T16:34:34.920Z,85.14
2018-12-12T16:37:01.317Z,85.39
2018-12-12T16:39:27.251Z,85.06
2018-12-12T16:41:53.526Z,84.79
2018-12-12T16:44:19.423Z,84.70
2018-12-12T16:46:45.354Z,84.02
2018-12-12T16:49:11.195Z,82.93
2018-12-12T16:51:37.057Z,83.58
2018-12-12T16:54:03.993Z,83.81
2018-12-12T16:56:29.847Z,83.23
2018-12-12T16:58:56.510Z,82.93
2018-12-12T17:01:22.511Z,82.05
2018-12-12T17:03:48.380Z,82.63
2018-12-12T17:06:14.285Z,83.11
2018-12-12T17:08:40.317Z,83.09
2018-12-12T17:11:06.914Z,84.52
2018-12-12T17:13:32.770Z,84.28
2018-12-12T17:15:58.619Z,84.15
2018-12-12T17:18:24.379Z,85.16
2018-12-12T17:20:50.219Z,85.01
2018-12-12T17:23:16.039Z,85.21
2018-12-12T17:25:41.794Z,85.34
2018-12-12T17:28:07.746Z,84.86
2018-12-12T17:30:35.476Z,85.66
2018-12-12T17:33:01.330Z,85.70
2018-12-12T17:35:27.269Z,86.56
2018-12-12T17:37:53.537Z,86.12
2018-12-12T17:40:19.307Z,86.91
2018-12-12T17:42:45.320Z,86.28
2018-12-12T17:45:11.161Z,85.79
2018-12-12T17:47:36.986Z,86.97
2018-12-12T17:50:04.212Z,86.38
2018-12-12T17:52:30.038Z,87.47
2018-12-12T17:54:55.754Z,87.40
2018-12-12T17:57:21.567Z,88.03
2018-12-12T17:59:47.298Z,88.21
2018-12-12T18:02:13.226Z,87.44
2018-12-12T18:04:38.946Z,87.72
2018-12-12T18:07:04.759Z,88.08
2018-12-12T18:09:30.486Z,88.09
2018-12-12T18:11:56.294Z,89.33
2018-12-12T18:17:05.591Z,89.31
2018-12-12T18:19:31.376Z,89.20
2018-12-12T18:21:57.189Z,90.00
2018-12-12T18:24:22.918Z,90.23
2018-12-12T18:26:55.693Z,89.82
2018-12-12T18:29:21.428Z,90.65
2018-12-12T18:31:47.140Z,90.91
2018-12-12T18:34:12.983Z,90.33
2018-12-12T18:36:38.798Z,90.25
2018-12-12T18:39:05.463Z,91.35
2018-12-12T18:41:31.192Z,90.58
2018-12-12T18:43:57.033Z,91.11
2018-12-12T18:46:22.757Z,90.64
2018-12-12T18:48:48.550Z,90.97
2018-12-12T18:51:14.267Z,91.07
2018-12-12T18:53:39.994Z,91.53
2018-12-12T18:56:05.752Z,91.22
2018-12-12T18:58:31.482Z,92.01
2018-12-12T19:00:57.226Z,91.76
2018-12-12T19:03:23.075Z,92.06
2018-12-12T19:05:48.821Z,91.44
2018-12-12T19:08:14.594Z,91.96
2018-12-12T19:10:40.330Z,90.89
2018-12-12T19:13:06.727Z,90.55
2018-12-12T19:15:34.755Z,90.30
2018-12-12T19:18:00.872Z,91.23
2018-12-12T19:20:27.102Z,90.26
2018-12-12T19:22:53.330Z,91.04
2018-12-12T19:25:19.201Z,91.49
2018-12-12T19:27:44.935Z,91.26
2018-12-12T19:30:10.774Z,91.47
2018-12-12T19:32:36.511Z,91.59
2018-12-12T19:35:04.557Z,91.87
2018-12-12T19:37:30.732Z,91.56
2018-12-12T19:39:56.892Z,91.89
2018-12-12T19:42:23.826Z,91.99
2018-12-12T19:44:56.545Z,92.97
2018-12-12T19:47:23.183Z,92.67
2018-12-12T19:49:49.510Z,92.83
2018-12-12T19:52:15.260Z,93.18
2018-12-12T19:54:40.962Z,92.53
2018-12-12T20:00:00.813Z,92.46
2018-12-12T20:02:26.555Z,92.49
2018-12-12T20:04:52.569Z,92.84
2018-12-12T20:07:18.842Z,92.98
2018-12-12T20:09:44.706Z,92.16
2018-12-12T20:12:10.523Z,93.40
2018-12-12T20:14:36.603Z,92.28
2018-12-12T20:17:02.677Z,92.81
2018-12-12T20:19:28.442Z,93.27
2018-12-12T20:21:55.169Z,93.08
2018-12-12T20:24:23.039Z,93.41
2018-12-12T20:26:49.396Z,93.44
2018-12-12T20:29:15.170Z,93.09
2018-12-12T20:31:41.277Z,92.21
2018-12-12T20:34:14.327Z,92.69
2018-12-12T20:36:40.093Z,93.66
2018-12-12T20:39:05.994Z,93.19
2018-12-12T20:41:31.850Z,92.65
2018-12-12T20:43:57.585Z,92.40
2018-12-12T20:46:23.694Z,92.96
2018-12-12T20:48:49.770Z,91.90
2018-12-12T20:51:15.891Z,91.95
2018-12-12T20:53:41.618Z,92.06
2018-12-12T20:56:07.375Z,92.08
2018-12-12T20:58:33.452Z,92.58
2018-12-12T21:00:59.280Z,92.44
2018-12-12T21:03:25.106Z,92.05
2018-12-12T21:05:54.574Z,92.78
2018-12-12T21:08:19.071Z,93.11
2018-12-12T21:10:45.117Z,92.59
2018-12-12T21:13:11.474Z,93.72
2018-12-12T21:15:39.342Z,94.13
2018-12-12T21:18:05.481Z,94.03
2018-12-12T21:20:31.620Z,93.80
2018-12-12T21:22:57.583Z,93.73
2018-12-12T21:25:24.331Z,93.29
2018-12-12T21:27:50.058Z,93.54
2018-12-12T21:30:17.361Z,93.51
2018-12-12T21:32:43.793Z,93.77
2018-12-12T21:35:09.938Z,93.97
2018-12-12T21:37:36.987Z,94.04
2018-12-12T21:40:03.135Z,93.30
2018-12-12T21:42:29.423Z,93.58
2018-12-12T21:44:55.161Z,93.09
2018-12-12T21:47:20.867Z,93.53
2018-12-12T21:49:46.660Z,93.58
2018-12-12T21:52:12.802Z,94.04
2018-12-12T21:54:39.030Z,93.84
2018-12-12T21:57:05.119Z,93.16
2018-12-12T21:59:30.869Z,93.23
2018-12-12T22:01:56.979Z,94.10
2018-12-12T22:04:23.110Z,94.09
2018-12-12T22:06:48.839Z,93.31
2018-12-12T22:09:14.568Z,94.55
2018-12-12T22:11:40.380Z,93.54
2018-12-12T22:14:06.118Z,94.45
2018-12-12T22:16:31.838Z,94.49
2018-12-12T22:18:57.773Z,94.57
2018-12-12T22:21:23.593Z,94.63
2018-12-12T22:23:50.338Z,94.17
2018-12-12T22:26:16.082Z,94.82
2018-12-12T22:28:41.799Z,94.48
2018-12-12T22:31:07.643Z,94.48
2018-12-12T22:33:33.352Z,95.34
2018-12-12T22:35:59.078Z,94.40
2018-12-12T22:38:25.220Z,95.34
2018-12-12T22:40:51.227Z,95.27
2018-12-12T22:43:16.975Z,95.22
2018-12-12T22:45:42.794Z,95.29
2018-12-12T22:48:09.285Z,94.60
2018-12-12T22:50:35.011Z,95.51
2018-12-12T22:53:01.244Z,94.66
2018-12-12T22:55:26.982Z,95.26
2018-12-12T22:57:53.003Z,94.76
2018-12-12T23:00:25.107Z,94.57
2018-12-12T23:02:50.820Z,95.32
2018-12-12T23:05:16.646Z,94.93
2018-12-12T23:07:43.222Z,94.13
2018-12-12T23:10:09.056Z,94.14
2018-12-12T23:12:34.766Z,95.02
2018-12-12T23:15:00.471Z,94.47
2018-12-12T23:17:26.379Z,95.54
2018-12-12T23:19:52.905Z,94.46
2018-12-12T23:22:18.629Z,94.72
2018-12-12T23:24:44.338Z,95.68
2018-12-12T23:27:10.060Z,95.34
2018-12-12T23:29:35.765Z,95.72
2018-12-12T23:32:01.474Z,95.55
2018-12-12T23:34:27.280Z,94.94
2018-12-12T23:36:53.099Z,95.63
2018-12-12T23:39:18.807Z,94.43
2018-12-12T23:41:44.523Z,94.61
2018-12-12T23:44:10.256Z,94.32
2018-12-12T23:46:35.983Z,95.13
2018-12-12T23:49:01.698Z,94.56
2018-12-12T23:51:27.438Z,94.06
2018-12-12T23:53:53.330Z,94.68
2018-12-12T23:56:19.062Z,94.65
2018-12-12T23:58:44.762Z,93.49
